createdAt,value
2023-05-01T00:00:53.170Z,2.45
2023-05-01T00:03:19.925Z,2.13
2023-05-01T00:05:47.484Z,2.67
2023-05-01T00:08:14.184Z,2.28
2023-05-01T00:10:40.822Z,2.58
2023-05-01T00:13:07.526Z,2.55
2023-05-01T00:15:34.168Z,1.90
2023-05-01T00:18:00.919Z,2.53
2023-05-01T00:20:28.654Z,2.95
2023-05-01T00:22:55.980Z,2.78
2023-05-01T00:25:22.597Z,2.30
2023-05-01T00:27:49.363Z,2.72
2023-05-01T00:30:16.169Z,2.05
2023-05-01T00:32:42.895Z,2.08
2023-05-01T00:35:09.717Z,2.20
2023-05-01T00:37:36.373Z,2.60
2023-05-01T00:40:03.114Z,2.08
2023-05-01T00:42:35.070Z,2.70
2023-05-01T00:45:01.882Z,2.85
2023-05-01T00:47:28.645Z,2.45
2023-05-01T00:49:55.980Z,2.28
2023-05-01T00:52:24.689Z,2.28
2023-05-01T00:54:52.190Z,2.53
2023-05-01T00:57:20.587Z,2.47
2023-05-01T00:59:47.785Z,2.60
2023-05-01T01:02:14.878Z,2.03
2023-05-01T01:04:46.696Z,2.50
2023-05-01T01:07:38.996Z,2.47
2023-05-01T01:10:20.276Z,2.60
2023-05-01T01:13:28.997Z,2.92
2023-05-01T01:16:33.977Z,2.15
2023-05-01T01:19:32.958Z,2.63
2023-05-01T01:22:12.232Z,2.40
2023-05-01T01:25:09.496Z,2.28
2023-05-01T01:28:01.425Z,2.40
2023-05-01T01:30:52.711Z,2.35
2023-05-01T01:33:52.314Z,2.47
2023-05-01T01:36:40.339Z,2.80
2023-05-01T01:39:14.546Z,2.90
2023-05-01T01:41:45.258Z,2.35
2023-05-01T01:44:49.185Z,2.50
2023-05-01T01:47:17.652Z,2.42
2023-05-01T01:49:48.258Z,2.63
2023-05-01T01:52:17.110Z,2.55
2023-05-01T01:54:51.245Z,2.65
2023-05-01T01:57:20.766Z,2.60
2023-05-01T01:59:48.764Z,2.63
2023-05-01T02:02:20.677Z,2.53
2023-05-01T02:04:49.435Z,2.30
2023-05-01T02:07:18.690Z,2.67
2023-05-01T02:09:46.546Z,2.30
2023-05-01T02:12:16.698Z,2.55
2023-05-01T02:14:45.690Z,2.50
2023-05-01T02:17:14.446Z,2.50
2023-05-01T02:19:44.004Z,2.53
2023-05-01T02:22:11.643Z,2.90
2023-05-01T02:24:40.239Z,2.55
2023-05-01T02:27:21.431Z,2.10
2023-05-01T02:29:48.346Z,2.40
2023-05-01T02:32:15.050Z,2.42
2023-05-01T02:34:42.062Z,2.50
2023-05-01T02:37:11.436Z,2.25
2023-05-01T02:39:39.430Z,2.58
2023-05-01T02:42:09.439Z,2.20
2023-05-01T02:44:41.962Z,2.85
2023-05-01T02:47:10.764Z,3.00
2023-05-01T02:49:38.682Z,3.13
2023-05-01T02:52:05.896Z,2.42
2023-05-01T02:54:33.842Z,2.30
2023-05-01T02:57:00.532Z,2.42
2023-05-01T02:59:27.218Z,2.13
2023-05-01T03:01:53.826Z,2.72
2023-05-01T03:04:20.482Z,2.85
2023-05-01T03:06:47.305Z,2.65
2023-05-01T03:09:14.016Z,2.13
2023-05-01T03:11:40.700Z,2.97
2023-05-01T03:14:07.447Z,2.53
2023-05-01T03:16:34.165Z,2.58
2023-05-01T03:19:00.795Z,2.40
2023-05-01T03:21:27.477Z,2.95
2023-05-01T03:23:54.568Z,2.83
2023-05-01T03:26:21.296Z,2.38
2023-05-01T03:28:48.188Z,2.28
2023-05-01T03:31:15.163Z,2.33
2023-05-01T03:33:41.813Z,2.72
2023-05-01T03:36:14.224Z,2.58
2023-05-01T03:38:40.906Z,2.38
2023-05-01T03:41:07.812Z,2.28
2023-05-01T03:43:34.634Z,2.58
2023-05-01T03:46:01.348Z,2.22
2023-05-01T03:48:27.989Z,2.92
2023-05-01T03:50:54.678Z,1.90
2023-05-01T03:53:21.309Z,3.03
2023-05-01T03:55:48.129Z,2.40
2023-05-01T03:58:14.789Z,2.60
2023-05-01T04:00:41.786Z,2.22
2023-05-01T04:03:08.523Z,2.58
2023-05-01T04:05:35.937Z,2.55
2023-05-01T04:08:02.762Z,2.38
2023-05-01T04:10:29.392Z,2.40
2023-05-01T04:12:56.035Z,2.53
2023-05-01T04:15:22.822Z,2.50
2023-05-01T04:17:49.683Z,2.50
2023-05-01T04:20:16.966Z,2.45
2023-05-01T04:22:43.588Z,3.05
2023-05-01T04:25:10.623Z,2.28
2023-05-01T04:27:37.262Z,2.30
2023-05-01T04:30:04.432Z,2.33
2023-05-01T04:32:31.326Z,2.30
2023-05-01T04:34:58.311Z,2.70
2023-05-01T04:37:24.976Z,2.40
2023-05-01T04:39:51.756Z,2.65
2023-05-01T04:42:18.440Z,2.28
2023-05-01T04:44:45.729Z,2.67
2023-05-01T04:47:12.360Z,2.63
2023-05-01T04:49:39.097Z,2.42
2023-05-01T04:52:05.723Z,2.30
2023-05-01T04:54:32.357Z,2.30
2023-05-01T04:57:03.328Z,2.20
2023-05-01T04:59:30.033Z,1.88
2023-05-01T05:01:57.080Z,2.38
2023-05-01T05:04:24.348Z,2.75
2023-05-01T05:06:51.014Z,2.30
2023-05-01T05:09:19.953Z,2.95
2023-05-01T05:11:47.497Z,2.85
2023-05-01T05:14:14.133Z,2.95
2023-05-01T05:16:43.867Z,2.97
2023-05-01T05:19:10.616Z,2.92
2023-05-01T05:21:40.300Z,2.78
2023-05-01T05:24:06.938Z,3.15
2023-05-01T05:26:33.570Z,2.70
2023-05-01T05:29:00.396Z,2.50
2023-05-01T05:31:27.126Z,3.17
2023-05-01T05:33:53.781Z,3.42
2023-05-01T05:36:20.609Z,3.10
2023-05-01T05:38:51.150Z,3.00
2023-05-01T05:41:17.999Z,2.80
2023-05-01T05:43:47.698Z,3.38
2023-05-01T05:46:14.386Z,3.05
2023-05-01T05:48:41.810Z,2.92
2023-05-01T05:51:08.532Z,3.15
2023-05-01T05:53:35.544Z,2.90
2023-05-01T05:56:02.659Z,4.05
2023-05-01T05:58:29.341Z,2.95
2023-05-01T06:00:57.133Z,3.40
2023-05-01T06:03:24.007Z,3.20
2023-05-01T06:05:51.075Z,3.25
2023-05-01T06:08:17.775Z,3.03
2023-05-01T06:10:44.830Z,4.20
2023-05-01T06:13:13.665Z,3.22
2023-05-01T06:15:41.857Z,3.38
2023-05-01T06:18:10.392Z,3.28
2023-05-01T06:20:37.327Z,3.05
2023-05-01T06:23:04.258Z,3.63
2023-05-01T06:25:31.065Z,3.50
2023-05-01T06:27:57.834Z,4.18
2023-05-01T06:30:25.186Z,3.53
2023-05-01T06:33:00.814Z,3.58
2023-05-01T06:35:28.045Z,3.80
2023-05-01T06:37:56.013Z,4.15
2023-05-01T06:40:22.722Z,3.95
2023-05-01T06:42:49.391Z,3.92
2023-05-01T06:45:19.313Z,3.70
2023-05-01T06:47:46.030Z,4.07
2023-05-01T06:50:12.667Z,3.40
2023-05-01T06:52:40.040Z,3.42
2023-05-01T06:55:07.005Z,3.80
2023-05-01T06:57:33.646Z,3.90
2023-05-01T07:00:00.345Z,3.85
2023-05-01T07:02:30.066Z,3.50
2023-05-01T07:04:57.041Z,3.97
2023-05-01T07:07:24.167Z,4.13
2023-05-01T07:09:50.881Z,3.90
2023-05-01T07:12:18.017Z,4.05
2023-05-01T07:14:44.899Z,4.05
2023-05-01T07:17:11.640Z,3.67
2023-05-01T07:19:41.014Z,4.30
2023-05-01T07:22:07.696Z,3.83
2023-05-01T07:24:34.922Z,3.55
2023-05-01T07:27:03.396Z,4.05
2023-05-01T07:29:30.133Z,3.50
2023-05-01T07:31:56.774Z,3.95
2023-05-01T07:34:23.471Z,4.43
2023-05-01T07:36:50.162Z,3.50
2023-05-01T07:39:17.740Z,3.50
2023-05-01T07:41:44.409Z,3.60
2023-05-01T07:44:11.081Z,3.60
2023-05-01T07:46:38.791Z,3.70
2023-05-01T07:49:05.563Z,3.10
2023-05-01T07:51:32.676Z,3.50
2023-05-01T07:54:04.116Z,3.45
2023-05-01T07:56:31.343Z,3.30
2023-05-01T07:58:58.136Z,3.53
2023-05-01T08:01:25.555Z,4.57
2023-05-01T08:03:52.293Z,3.10
2023-05-01T08:06:19.076Z,3.22
2023-05-01T08:08:45.929Z,3.50
2023-05-01T08:11:12.654Z,3.10
2023-05-01T08:13:39.330Z,3.70
2023-05-01T08:16:06.177Z,3.40
2023-05-01T08:18:32.823Z,3.55
2023-05-01T08:20:59.539Z,3.45
2023-05-01T08:23:26.142Z,3.45
2023-05-01T08:25:52.958Z,3.92
2023-05-01T08:28:22.872Z,3.78
2023-05-01T08:30:49.639Z,3.47
2023-05-01T08:33:16.980Z,3.90
2023-05-01T08:35:43.644Z,3.67
2023-05-01T08:38:11.688Z,4.00
2023-05-01T08:40:40.904Z,3.47
2023-05-01T08:43:07.681Z,3.70
2023-05-01T08:45:37.825Z,4.05
2023-05-01T08:48:10.084Z,3.75
2023-05-01T08:53:06.348Z,3.55
2023-05-01T08:55:34.707Z,3.97
2023-05-01T08:58:02.646Z,3.75
2023-05-01T09:00:31.084Z,3.67
2023-05-01T09:03:02.323Z,3.97
2023-05-01T09:05:33.532Z,4.05
2023-05-01T09:08:00.992Z,4.00
2023-05-01T09:10:28.034Z,3.83
2023-05-01T09:12:59.851Z,4.50
2023-05-01T09:15:27.950Z,4.13
2023-05-01T09:17:55.438Z,4.00
2023-05-01T09:20:24.259Z,3.85
2023-05-01T09:22:51.025Z,4.00
2023-05-01T09:25:19.239Z,3.33
2023-05-01T09:27:46.177Z,4.30
2023-05-01T09:30:36.664Z,4.25
2023-05-01T09:33:09.853Z,3.55
2023-05-01T09:35:54.142Z,3.83
2023-05-01T09:38:25.202Z,3.78
2023-05-01T09:40:54.127Z,3.83
2023-05-01T09:43:28.647Z,3.80
2023-05-01T09:46:07.252Z,3.38
2023-05-01T09:48:35.726Z,3.83
2023-05-01T09:51:22.625Z,3.13
2023-05-01T09:53:50.464Z,3.75
2023-05-01T09:56:17.925Z,3.22
2023-05-01T09:58:44.591Z,3.60
2023-05-01T10:01:11.515Z,3.38
2023-05-01T10:03:38.499Z,2.90
2023-05-01T10:06:05.608Z,2.97
2023-05-01T10:08:48.924Z,3.13
2023-05-01T10:11:16.160Z,3.47
2023-05-01T10:13:42.859Z,3.25
2023-05-01T10:16:29.900Z,3.45
2023-05-01T10:18:58.165Z,3.45
2023-05-01T10:21:25.192Z,3.33
2023-05-01T10:23:53.108Z,3.20
2023-05-01T10:26:20.611Z,3.15
2023-05-01T10:28:49.536Z,3.80
2023-05-01T10:31:16.855Z,3.08
2023-05-01T10:33:44.564Z,3.45
2023-05-01T10:36:34.273Z,3.28
2023-05-01T10:39:00.943Z,2.83
2023-05-01T10:41:58.615Z,3.70
2023-05-01T10:44:26.904Z,4.05
2023-05-01T10:46:54.644Z,2.88
2023-05-01T10:49:21.640Z,2.85
2023-05-01T10:51:58.483Z,2.88
2023-05-01T10:54:27.138Z,3.30
2023-05-01T10:56:55.724Z,3.15
2023-05-01T10:59:22.655Z,3.58
2023-05-01T11:01:53.434Z,3.10
2023-05-01T11:04:27.022Z,2.67
2023-05-01T11:07:05.690Z,2.97
2023-05-01T11:09:39.327Z,2.67
2023-05-01T11:12:07.320Z,2.67
2023-05-01T11:15:08.622Z,2.60
2023-05-01T11:17:41.324Z,2.50
2023-05-01T11:20:37.060Z,2.92
2023-05-01T11:23:03.733Z,2.38
2023-05-01T11:25:31.929Z,2.35
2023-05-01T11:28:01.357Z,2.97
2023-05-01T11:30:46.553Z,2.90
2023-05-01T11:33:14.466Z,2.30
2023-05-01T11:35:41.633Z,2.58
2023-05-01T11:38:18.704Z,2.30
2023-05-01T11:40:46.009Z,2.15
2023-05-01T11:43:12.717Z,2.58
2023-05-01T11:45:39.406Z,2.88
2023-05-01T11:48:15.824Z,2.13
2023-05-01T11:50:42.578Z,2.13
2023-05-01T11:53:17.531Z,3.45
2023-05-01T11:55:45.314Z,2.45
2023-05-01T11:58:12.603Z,1.90
2023-05-01T12:00:43.686Z,2.33
2023-05-01T12:03:15.188Z,1.90
2023-05-01T12:05:43.928Z,1.80
2023-05-01T12:08:13.272Z,1.90
2023-05-01T12:10:43.038Z,1.92
2023-05-01T12:13:11.329Z,2.00
2023-05-01T12:15:41.793Z,1.45
2023-05-01T12:18:09.211Z,1.35
2023-05-01T12:20:41.642Z,1.80
2023-05-01T12:23:11.584Z,2.00
2023-05-01T12:25:39.565Z,1.60
2023-05-01T12:28:13.084Z,2.25
2023-05-01T12:30:40.528Z,1.95
2023-05-01T12:33:11.324Z,1.70
2023-05-01T12:35:38.837Z,1.63
2023-05-01T12:38:17.310Z,1.98
2023-05-01T12:40:58.121Z,1.83
2023-05-01T12:43:32.748Z,1.33
2023-05-01T12:45:59.761Z,1.77
2023-05-01T12:48:26.962Z,1.48
2023-05-01T12:50:57.191Z,1.50
2023-05-01T12:53:25.841Z,1.65
2023-05-01T12:55:57.000Z,1.83
2023-05-01T12:58:24.946Z,1.75
2023-05-01T13:00:55.378Z,1.70
2023-05-01T13:03:27.413Z,1.80
2023-05-01T13:08:33.205Z,1.20
2023-05-01T13:11:02.904Z,1.50
2023-05-01T13:13:33.993Z,1.48
2023-05-01T13:16:12.230Z,1.10
2023-05-01T13:18:46.521Z,1.17
2023-05-01T13:21:16.203Z,1.10
2023-05-01T13:23:52.126Z,1.10
2023-05-01T13:26:24.784Z,1.13
2023-05-01T13:28:51.735Z,1.27
2023-05-01T13:31:18.394Z,1.00
2023-05-01T13:33:45.000Z,1.30
2023-05-01T13:36:25.414Z,1.20
2023-05-01T13:38:55.889Z,1.10
2023-05-01T13:41:25.588Z,1.02
2023-05-01T13:43:55.090Z,1.30
2023-05-01T13:46:23.473Z,1.15
2023-05-01T13:48:50.569Z,1.20
2023-05-01T13:51:25.220Z,1.08
2023-05-01T13:53:54.695Z,1.10
2023-05-01T13:56:21.904Z,1.13
2023-05-01T13:58:50.016Z,1.40
2023-05-01T14:01:20.844Z,1.17
2023-05-01T14:03:48.717Z,1.13
2023-05-01T14:06:20.366Z,1.23
2023-05-01T14:08:48.881Z,1.00
2023-05-01T14:11:15.895Z,1.33
2023-05-01T14:13:44.729Z,1.75
2023-05-01T14:16:32.704Z,1.23
2023-05-01T14:18:59.561Z,1.70
2023-05-01T14:21:30.277Z,1.75
2023-05-01T14:23:58.078Z,1.48
2023-05-01T14:26:24.860Z,1.50
2023-05-01T14:28:51.781Z,0.90
2023-05-01T14:31:21.273Z,1.70
2023-05-01T14:33:48.165Z,1.50
2023-05-01T14:36:14.927Z,1.52
2023-05-01T14:38:41.950Z,1.60
2023-05-01T14:41:12.487Z,1.40
2023-05-01T14:43:42.616Z,1.48
2023-05-01T14:46:11.694Z,1.50
2023-05-01T14:48:41.685Z,1.50
2023-05-01T14:51:12.802Z,1.30
2023-05-01T14:53:43.688Z,1.45
2023-05-01T14:56:11.432Z,1.65
2023-05-01T14:58:38.415Z,1.42
2023-05-01T15:01:05.413Z,2.03
2023-05-01T15:03:32.781Z,2.15
2023-05-01T15:05:59.756Z,1.38
2023-05-01T15:08:26.487Z,1.25
2023-05-01T15:10:53.350Z,1.60
2023-05-01T15:13:21.162Z,1.90
2023-05-01T15:15:48.146Z,1.85
2023-05-01T15:18:14.974Z,1.60
2023-05-01T15:20:41.777Z,2.00
2023-05-01T15:23:08.643Z,1.40
2023-05-01T15:25:35.578Z,1.60
2023-05-01T15:28:03.422Z,1.63
2023-05-01T15:30:30.153Z,1.80
2023-05-01T15:32:57.301Z,1.52
2023-05-01T15:35:24.369Z,1.50
2023-05-01T15:37:51.442Z,1.67
2023-05-01T15:40:18.293Z,1.67
2023-05-01T15:42:47.920Z,1.40
2023-05-01T15:45:14.829Z,1.48
2023-05-01T15:47:41.598Z,1.80
2023-05-01T15:50:13.205Z,1.60
2023-05-01T15:52:40.002Z,1.77
2023-05-01T15:55:07.061Z,1.92
2023-05-01T15:57:34.468Z,1.25
2023-05-01T16:00:01.822Z,1.30
2023-05-01T16:02:32.721Z,1.60
2023-05-01T16:05:00.235Z,1.52
2023-05-01T16:07:29.205Z,1.40
2023-05-01T16:09:57.539Z,1.52
2023-05-01T16:12:24.613Z,1.88
2023-05-01T16:14:51.347Z,1.75
2023-05-01T16:17:19.531Z,1.70
2023-05-01T16:19:46.780Z,1.92
2023-05-01T16:22:16.648Z,1.65
2023-05-01T16:24:43.542Z,1.95
2023-05-01T16:27:14.168Z,1.80
2023-05-01T16:29:40.893Z,1.90
2023-05-01T16:32:11.350Z,2.15
2023-05-01T16:34:40.054Z,2.00
2023-05-01T16:37:06.890Z,1.63
2023-05-01T16:39:38.335Z,1.92
2023-05-01T16:42:05.102Z,2.35
2023-05-01T16:44:35.375Z,2.10
2023-05-01T16:47:03.501Z,2.50
2023-05-01T16:49:30.388Z,2.40
2023-05-01T16:51:58.470Z,1.92
2023-05-01T16:54:31.968Z,1.88
2023-05-01T16:56:59.225Z,1.70
2023-05-01T16:59:27.900Z,1.92
2023-05-01T17:01:54.693Z,1.80
2023-05-01T17:04:22.867Z,1.90
2023-05-01T17:06:49.740Z,2.30
2023-05-01T17:09:16.492Z,2.40
2023-05-01T17:11:43.178Z,1.70
2023-05-01T17:14:09.858Z,1.73
2023-05-01T17:16:36.781Z,2.10
2023-05-01T17:19:08.788Z,2.10
2023-05-01T17:21:35.898Z,2.20
2023-05-01T17:24:02.612Z,2.30
2023-05-01T17:26:29.252Z,1.80
2023-05-01T17:28:55.994Z,1.70
2023-05-01T17:31:23.043Z,2.20
2023-05-01T17:33:49.779Z,1.80
2023-05-01T17:36:16.568Z,2.03
2023-05-01T17:38:43.281Z,2.17
2023-05-01T17:41:09.940Z,1.90
2023-05-01T17:43:36.624Z,1.73
2023-05-01T17:46:04.836Z,1.67
2023-05-01T17:48:31.564Z,1.90
2023-05-01T17:50:58.326Z,1.67
2023-05-01T17:53:25.255Z,2.20
2023-05-01T17:55:52.351Z,2.90
2023-05-01T17:58:19.034Z,1.95
2023-05-01T18:00:45.697Z,2.28
2023-05-01T18:03:13.093Z,1.58
2023-05-01T18:05:39.978Z,1.88
2023-05-01T18:08:07.621Z,1.92
2023-05-01T18:10:34.401Z,2.00
2023-05-01T18:13:01.770Z,1.98
2023-05-01T18:15:28.498Z,1.50
2023-05-01T18:17:55.276Z,2.10
2023-05-01T18:20:22.758Z,2.92
2023-05-01T18:22:49.955Z,2.50
2023-05-01T18:25:17.190Z,2.13
2023-05-01T18:27:45.110Z,2.00
2023-05-01T18:30:14.629Z,2.05
2023-05-01T18:32:48.208Z,2.00
2023-05-01T18:35:16.659Z,1.98
2023-05-01T18:37:43.982Z,2.00
2023-05-01T18:40:11.498Z,1.80
2023-05-01T18:42:39.825Z,2.17
2023-05-01T18:45:07.157Z,2.33
2023-05-01T18:47:33.918Z,3.03
2023-05-01T18:50:00.868Z,3.20
2023-05-01T18:52:29.805Z,4.32
2023-05-01T18:54:56.452Z,3.70
2023-05-01T18:57:23.188Z,3.63
2023-05-01T18:59:49.882Z,3.33
2023-05-01T19:02:16.523Z,2.75
2023-05-01T19:07:16.096Z,2.38
2023-05-01T19:09:42.821Z,2.97
2023-05-01T19:12:09.474Z,2.70
2023-05-01T19:14:36.100Z,2.40
2023-05-01T19:17:02.840Z,2.55
2023-05-01T19:19:29.522Z,2.55
2023-05-01T19:21:56.158Z,3.05
2023-05-01T19:24:22.795Z,2.70
2023-05-01T19:26:49.778Z,2.35
2023-05-01T19:29:16.454Z,2.45
2023-05-01T19:31:43.154Z,2.17
2023-05-01T19:34:09.860Z,2.30
2023-05-01T19:36:37.036Z,1.88
2023-05-01T19:39:04.532Z,2.40
2023-05-01T19:41:32.014Z,1.77
2023-05-01T19:43:58.621Z,1.80
2023-05-01T19:46:25.398Z,1.60
2023-05-01T19:48:52.259Z,2.00
2023-05-01T19:51:18.932Z,1.83
2023-05-01T19:53:45.908Z,2.08
2023-05-01T19:56:12.530Z,2.15
2023-05-01T19:58:41.970Z,1.98
2023-05-01T20:01:11.697Z,1.98
2023-05-01T20:03:38.867Z,2.22
2023-05-01T20:06:06.569Z,2.40
2023-05-01T20:08:33.984Z,2.40
2023-05-01T20:11:01.879Z,2.40
2023-05-01T20:13:28.549Z,2.33
2023-05-01T20:15:55.333Z,2.40
2023-05-01T20:18:22.217Z,2.20
2023-05-01T20:20:48.934Z,2.30
2023-05-01T20:23:17.554Z,2.15
2023-05-01T20:25:46.330Z,2.47
2023-05-01T20:28:14.814Z,2.00
2023-05-01T20:30:43.672Z,2.10
2023-05-01T20:33:11.132Z,2.63
2023-05-01T20:35:39.344Z,2.35
2023-05-01T20:38:06.562Z,3.00
2023-05-01T20:40:33.654Z,2.65
2023-05-01T20:43:00.700Z,2.45
2023-05-01T20:45:29.188Z,2.45
2023-05-01T20:47:56.144Z,2.25
2023-05-01T20:50:23.277Z,2.38
2023-05-01T20:52:52.585Z,2.30
2023-05-01T20:55:19.650Z,2.47
2023-05-01T20:57:46.487Z,2.50
2023-05-01T21:00:13.919Z,2.42
2023-05-01T21:02:41.447Z,2.25
2023-05-01T21:05:10.273Z,2.47
2023-05-01T21:07:38.285Z,2.28
2023-05-01T21:10:10.077Z,2.47
2023-05-01T21:12:36.892Z,2.25
2023-05-01T21:15:04.454Z,2.60
2023-05-01T21:17:36.297Z,2.33
2023-05-01T21:20:10.726Z,2.20
2023-05-01T21:22:41.446Z,2.47
2023-05-01T21:25:09.112Z,2.30
2023-05-01T21:27:41.349Z,2.35
2023-05-01T21:30:08.936Z,2.28
2023-05-01T21:32:40.326Z,2.35
2023-05-01T21:35:11.491Z,2.20
2023-05-01T21:37:39.373Z,2.35
2023-05-01T21:40:07.219Z,1.83
2023-05-01T21:42:39.950Z,1.92
2023-05-01T21:45:08.253Z,2.00
2023-05-01T21:47:38.540Z,2.20
2023-05-01T21:50:13.033Z,2.20
2023-05-01T21:52:40.464Z,2.28
2023-05-01T21:55:09.721Z,1.98
2023-05-01T21:57:37.973Z,2.10
2023-05-01T22:00:12.363Z,1.73
2023-05-01T22:02:43.693Z,2.28
2023-05-01T22:05:12.752Z,2.35
2023-05-01T22:07:40.786Z,1.92
2023-05-01T22:10:09.153Z,2.40
2023-05-01T22:12:35.850Z,1.60
2023-05-01T22:15:02.943Z,1.88
2023-05-01T22:17:29.768Z,1.45
2023-05-01T22:19:56.504Z,1.70
2023-05-01T22:22:23.369Z,1.50
2023-05-01T22:24:50.091Z,1.77
2023-05-01T22:27:16.800Z,1.70
2023-05-01T22:29:43.507Z,1.88
2023-05-01T22:32:10.391Z,1.70
2023-05-01T22:34:37.180Z,1.63
2023-05-01T22:37:03.836Z,1.90
2023-05-01T22:39:30.634Z,1.60
2023-05-01T22:41:58.135Z,2.00
2023-05-01T22:44:24.837Z,1.90
2023-05-01T22:46:51.710Z,1.88
2023-05-01T22:49:18.519Z,1.95
2023-05-01T22:51:45.152Z,1.50
2023-05-01T22:54:11.841Z,1.85
2023-05-01T22:56:38.599Z,1.75
2023-05-01T22:59:05.270Z,1.88
2023-05-01T23:01:31.937Z,1.70
2023-05-01T23:03:58.869Z,1.70
2023-05-01T23:06:25.618Z,1.75
2023-05-01T23:08:55.555Z,1.60
2023-05-01T23:11:22.744Z,1.92
2023-05-01T23:13:50.264Z,1.70
2023-05-01T23:16:17.560Z,2.00
2023-05-01T23:18:45.385Z,2.28
2023-05-01T23:21:13.837Z,2.10
2023-05-01T23:23:44.587Z,1.90
2023-05-01T23:26:20.026Z,2.20
2023-05-01T23:28:46.635Z,1.80
2023-05-01T23:31:20.806Z,2.05
2023-05-01T23:33:47.485Z,1.67
2023-05-01T23:36:14.070Z,2.28
2023-05-01T23:38:40.818Z,2.42
2023-05-01T23:41:08.141Z,2.40
2023-05-01T23:43:36.171Z,1.63
2023-05-01T23:46:03.851Z,2.05
2023-05-01T23:48:31.196Z,2.03
2023-05-01T23:50:58.036Z,2.28
2023-05-01T23:53:25.071Z,2.55
2023-05-01T23:55:51.672Z,2.35
2023-05-01T23:58:18.293Z,2.53
